Time;durP1;ratioP1;P1;durP2;ratioP2;P2;SDS_P1;SDS_P2;PMS_P1;PMS_P2;Temp;Humidity;BMP_temperature;BMP_pressure;BME280_temperature;BME280_humidity;BME280_pressure;Samples;Min_cycle;Max_cycle;Signal;HPM_P1;HPM_P2
2022/12/10 00:00:53;;;;;;;48.50;32.25;;;7.20;87.30;;;;;;5053555;28;20025;-70
2022/12/10 00:03:18;;;;;;;54.70;34.03;;;7.20;87.20;;;;;;5038668;28;20021;-69
2022/12/10 00:05:44;;;;;;;53.80;33.33;;;7.20;87.30;;;;;;5034361;28;20027;-69
2022/12/10 00:08:10;;;;;;;54.22;33.53;;;7.10;87.40;;;;;;5034064;28;20104;-70
2022/12/10 00:10:39;;;;;;;54.28;34.30;;;7.10;87.30;;;;;;5034037;28;20032;-69
2022/12/10 00:13:05;;;;;;;54.78;35.33;;;7.10;87.50;;;;;;5033900;28;20486;-70
2022/12/10 00:15:30;;;;;;;58.42;35.30;;;7.10;87.60;;;;;;5033147;28;20030;-69
2022/12/10 00:17:56;;;;;;;57.63;35.17;;;7.20;87.50;;;;;;5033965;28;20029;-69
2022/12/10 00:20:21;;;;;;;51.35;33.78;;;7.20;87.50;;;;;;5033940;28;20022;-70
2022/12/10 00:22:47;;;;;;;51.15;32.65;;;7.20;87.40;;;;;;5033781;28;20028;-69
2022/12/10 00:25:12;;;;;;;55.42;34.30;;;7.20;87.50;;;;;;5033587;28;20037;-69
2022/12/10 00:27:38;;;;;;;51.40;33.63;;;7.10;87.60;;;;;;5033784;28;20021;-70
2022/12/10 00:30:04;;;;;;;54.08;34.38;;;7.10;87.80;;;;;;5033730;28;20028;-70
2022/12/10 00:32:29;;;;;;;55.30;33.95;;;7.00;87.80;;;;;;5033742;28;20087;-70
2022/12/10 00:34:57;;;;;;;54.35;34.47;;;7.00;88.00;;;;;;5033804;28;20462;-70
2022/12/10 00:37:23;;;;;;;59.45;36.60;;;7.10;87.80;;;;;;5033556;28;20056;-69
2022/12/10 00:39:48;;;;;;;58.45;34.13;;;7.00;88.10;;;;;;5031976;28;20387;-68
2022/12/10 00:42:14;;;;;;;59.03;36.03;;;7.00;88.00;;;;;;5033422;28;20394;-68
2022/12/10 00:44:39;;;;;;;58.88;34.80;;;7.00;88.10;;;;;;5033181;28;20026;-67
2022/12/10 00:47:05;;;;;;;53.55;33.88;;;7.00;88.20;;;;;;5033617;28;20030;-68
2022/12/10 00:49:30;;;;;;;51.35;31.27;;;7.00;88.00;;;;;;5033375;28;20021;-68
2022/12/10 00:51:56;;;;;;;49.10;32.15;;;7.00;87.80;;;;;;5033308;28;20032;-68
2022/12/10 00:54:21;;;;;;;48.38;30.77;;;7.00;87.90;;;;;;5033068;28;20030;-68
2022/12/10 00:56:47;;;;;;;45.92;30.15;;;7.00;88.10;;;;;;5033284;28;20025;-68
2022/12/10 00:59:12;;;;;;;48.05;30.25;;;6.90;87.80;;;;;;5033338;28;20020;-68
2022/12/10 01:01:41;;;;;;;49.35;32.22;;;7.00;87.70;;;;;;5033306;28;20055;-68
2022/12/10 01:04:10;;;;;;;48.65;31.17;;;6.90;87.70;;;;;;5033094;28;20017;-68
2022/12/10 01:06:41;;;;;;;53.33;33.15;;;6.90;87.70;;;;;;5033015;28;20036;-68
2022/12/10 01:09:08;;;;;;;54.65;33.47;;;6.90;88.10;;;;;;5032951;28;20018;-68
2022/12/10 01:11:37;;;;;;;51.85;32.58;;;6.90;88.40;;;;;;5032495;28;20035;-68
2022/12/10 01:14:03;;;;;;;52.00;32.33;;;6.80;88.40;;;;;;5043730;28;20116;-68
2022/12/10 01:16:29;;;;;;;49.05;32.13;;;6.80;88.30;;;;;;5031241;28;20125;-68
2022/12/10 01:18:55;;;;;;;50.05;31.90;;;6.90;88.10;;;;;;5032258;28;20378;-68
2022/12/10 01:21:22;;;;;;;49.55;31.48;;;6.90;88.10;;;;;;5032776;28;20438;-68
2022/12/10 01:23:49;;;;;;;48.83;31.45;;;6.90;87.90;;;;;;5032627;28;20430;-68
2022/12/10 01:26:20;;;;;;;52.22;32.90;;;6.80;87.90;;;;;;5032273;28;20440;-68
2022/12/10 01:28:46;;;;;;;51.72;32.05;;;6.80;88.30;;;;;;5032730;28;20053;-67
2022/12/10 01:31:21;;;;;;;55.28;33.80;;;6.80;88.40;;;;;;5032994;28;20060;-68
2022/12/10 01:33:47;;;;;;;49.75;32.20;;;6.80;88.40;;;;;;5048395;28;20018;-68
2022/12/10 01:36:26;;;;;;;51.67;32.45;;;6.80;88.20;;;;;;5032758;28;20413;-68
2022/12/10 01:38:52;;;;;;;53.00;33.20;;;6.90;88.30;;;;;;5032380;28;20033;-67
2022/12/10 01:41:44;;;;;;;57.90;33.95;;;6.90;88.40;;;;;;5033013;28;20417;-68
2022/12/10 01:44:09;;;;;;;57.17;34.50;;;6.80;88.60;;;;;;5032734;28;20037;-68
2022/12/10 01:46:43;;;;;;;57.25;36.20;;;6.80;88.60;;;;;;5032563;28;20026;-68
2022/12/10 01:49:16;;;;;;;60.60;35.72;;;6.80;88.90;;;;;;5048108;28;20057;-68
2022/12/10 01:51:43;;;;;;;61.10;35.15;;;6.80;89.00;;;;;;5031183;28;20025;-68
2022/12/10 01:54:14;;;;;;;56.72;35.97;;;6.80;88.90;;;;;;5032359;28;20026;-68
2022/12/10 01:56:43;;;;;;;59.47;35.60;;;6.80;88.70;;;;;;5032563;28;20470;-68
2022/12/10 01:59:09;;;;;;;57.90;35.00;;;6.70;88.90;;;;;;5032596;28;20108;-68
2022/12/10 02:01:42;;;;;;;57.42;35.08;;;6.80;88.80;;;;;;5032471;28;20096;-68
2022/12/10 02:04:31;;;;;;;56.67;34.38;;;6.70;88.70;;;;;;5032762;28;20112;-68
2022/12/10 02:07:09;;;;;;;63.42;35.45;;;6.80;89.00;;;;;;5032294;28;20470;-68
2022/12/10 02:09:44;;;;;;;63.17;34.58;;;6.80;88.80;;;;;;5032520;28;20030;-68
2022/12/10 02:12:25;;;;;;;61.45;35.50;;;6.70;89.00;;;;;;5032329;28;20078;-68
2022/12/10 02:15:03;;;;;;;65.27;35.77;;;6.80;88.90;;;;;;5032839;28;20120;-70
2022/12/10 02:17:37;;;;;;;58.80;35.22;;;6.80;88.70;;;;;;5032372;28;20033;-68
2022/12/10 02:20:08;;;;;;;60.58;37.47;;;6.70;88.90;;;;;;5048001;28;20021;-68
2022/12/10 02:22:50;;;;;;;62.47;36.88;;;6.60;89.30;;;;;;5032146;28;20021;-68
2022/12/10 02:25:20;;;;;;;58.67;36.28;;;6.70;89.10;;;;;;5032620;28;20018;-68
2022/12/10 02:27:57;;;;;;;58.35;35.60;;;6.80;88.90;;;;;;5032151;28;20025;-68
2022/12/10 02:30:23;;;;;;;57.53;35.45;;;6.70;89.20;;;;;;5032606;28;20022;-68
2022/12/10 02:32:50;;;;;;;58.40;34.72;;;6.70;88.90;;;;;;5032276;28;20470;-68
2022/12/10 02:35:21;;;;;;;62.78;36.00;;;6.80;88.90;;;;;;5032241;28;20027;-68
2022/12/10 02:37:59;;;;;;;59.28;36.15;;;6.70;88.90;;;;;;5032188;28;20036;-68
2022/12/10 02:40:30;;;;;;;58.55;36.25;;;6.70;89.30;;;;;;5036041;28;20116;-68
2022/12/10 02:42:56;;;;;;;62.75;37.03;;;6.70;89.00;;;;;;5051279;28;20021;-68
2022/12/10 02:45:25;;;;;;;58.22;34.90;;;6.70;89.00;;;;;;5035976;28;20041;-68
2022/12/10 02:47:53;;;;;;;64.38;38.63;;;6.70;88.90;;;;;;5035854;28;20057;-68
2022/12/10 02:50:20;;;;;;;60.83;36.03;;;6.70;89.00;;;;;;5034694;28;20116;-68
2022/12/10 02:52:46;;;;;;;57.97;36.15;;;6.70;89.00;;;;;;5035752;28;20556;-67
2022/12/10 02:55:13;;;;;;;60.63;36.00;;;6.60;89.20;;;;;;5036244;28;20026;-68
2022/12/10 02:58:02;;;;;;;60.35;36.28;;;6.70;89.20;;;;;;5035148;28;20037;-67
2022/12/10 03:00:30;;;;;;;60.28;37.78;;;6.60;89.40;;;;;;5035488;28;20037;-68
2022/12/10 03:03:04;;;;;;;63.47;36.20;;;6.70;89.50;;;;;;5035457;28;20041;-68
2022/12/10 03:05:42;;;;;;;59.28;35.40;;;6.60;89.80;;;;;;5035052;28;20033;-68
2022/12/10 03:08:30;;;;;;;63.70;36.90;;;6.60;89.70;;;;;;5035138;28;20032;-67
2022/12/10 03:11:01;;;;;;;58.60;35.13;;;6.60;89.70;;;;;;5035283;28;20025;-68
2022/12/10 03:13:40;;;;;;;57.03;33.97;;;6.70;89.30;;;;;;5034973;28;20044;-68
2022/12/10 03:16:05;;;;;;;55.28;33.35;;;6.60;89.50;;;;;;5035348;28;20116;-68
2022/12/10 03:18:34;;;;;;;58.20;34.72;;;6.60;89.40;;;;;;5034693;28;20132;-68
2022/12/10 03:21:04;;;;;;;56.60;33.17;;;6.60;89.50;;;;;;5035234;28;20022;-68
2022/12/10 03:23:34;;;;;;;56.28;32.70;;;6.60;89.80;;;;;;5035055;28;20029;-68
2022/12/10 03:26:01;;;;;;;56.30;34.28;;;6.60;89.80;;;;;;5035119;28;20017;-69
2022/12/10 03:28:30;;;;;;;61.45;35.85;;;6.60;89.90;;;;;;5035351;28;20438;-69
2022/12/10 03:30:57;;;;;;;58.03;33.25;;;6.60;90.00;;;;;;5035120;28;20021;-70
2022/12/10 03:33:22;;;;;;;59.15;34.42;;;6.50;90.00;;;;;;5034629;28;20029;-69
2022/12/10 03:35:49;;;;;;;55.03;33.67;;;6.60;89.90;;;;;;5034704;28;20025;-69
2022/12/10 03:38:15;;;;;;;57.15;33.55;;;6.60;89.90;;;;;;5034515;28;20127;-69
2022/12/10 03:40:41;;;;;;;60.28;32.83;;;6.60;89.80;;;;;;5034784;28;20105;-70
2022/12/10 03:43:06;;;;;;;55.90;32.30;;;6.60;90.00;;;;;;5034663;28;20155;-70
2022/12/10 03:45:32;;;;;;;52.58;32.13;;;6.50;90.00;;;;;;5034689;28;20489;-69
2022/12/10 03:47:57;;;;;;;57.38;35.05;;;6.60;90.00;;;;;;5033756;28;20025;-70
2022/12/10 03:50:23;;;;;;;57.17;32.88;;;6.50;90.00;;;;;;5032991;28;20199;-69
2022/12/10 03:52:48;;;;;;;59.22;35.50;;;6.50;90.10;;;;;;5034459;28;20516;-69
2022/12/10 03:55:14;;;;;;;59.28;34.65;;;6.50;90.10;;;;;;5034445;28;20029;-70
2022/12/10 03:57:40;;;;;;;62.22;35.03;;;6.60;90.20;;;;;;5034377;28;20048;-70
2022/12/10 04:00:06;;;;;;;59.70;35.60;;;6.50;90.20;;;;;;5034348;28;20140;-70
2022/12/10 04:02:32;;;;;;;59.40;33.60;;;6.40;90.30;;;;;;5033554;28;20128;-68
2022/12/10 04:04:57;;;;;;;61.42;34.78;;;6.50;90.40;;;;;;5034220;28;20053;-69
2022/12/10 04:07:23;;;;;;;61.35;35.17;;;6.40;90.40;;;;;;5034292;28;20501;-70
2022/12/10 04:09:48;;;;;;;58.08;34.70;;;6.50;90.50;;;;;;5034179;28;20548;-70
2022/12/10 04:12:14;;;;;;;62.03;33.90;;;6.50;90.50;;;;;;5033991;28;20030;-71
2022/12/10 04:17:24;;;;;;;65.63;37.28;;;6.50;90.50;;;;;;5033680;28;20115;-70
2022/12/10 04:19:49;;;;;;;67.15;37.78;;;6.40;90.50;;;;;;5032686;28;20041;-70
2022/12/10 04:27:43;;;;;;;67.53;36.38;;;6.50;90.60;;;;;;5034301;28;20094;-71
2022/12/10 04:30:12;;;;;;;65.18;37.03;;;6.40;90.60;;;;;;5033563;28;20029;-71
2022/12/10 04:32:37;;;;;;;59.13;35.65;;;6.40;90.60;;;;;;5033581;28;20100;-70
2022/12/10 04:35:03;;;;;;;64.57;38.40;;;6.40;90.60;;;;;;5034070;28;20052;-71
2022/12/10 04:37:29;;;;;;;66.18;39.13;;;6.50;90.60;;;;;;5033704;28;20037;-69
2022/12/10 04:39:55;;;;;;;65.10;38.58;;;6.40;90.60;;;;;;5033431;28;20029;-70
2022/12/10 04:42:22;;;;;;;69.40;37.28;;;6.40;90.60;;;;;;5033781;28;20064;-71
2022/12/10 04:44:48;;;;;;;65.60;37.63;;;6.50;90.70;;;;;;5033408;28;20018;-69
2022/12/10 04:47:14;;;;;;;60.78;35.95;;;6.40;90.60;;;;;;5033137;28;20033;-71
2022/12/10 04:49:40;;;;;;;72.05;39.38;;;6.40;90.70;;;;;;5033291;28;20021;-70
2022/12/10 04:52:06;;;;;;;62.60;37.30;;;6.40;90.60;;;;;;5048704;28;20030;-71
2022/12/10 04:54:32;;;;;;;65.68;38.22;;;6.50;90.60;;;;;;5033312;28;20029;-71
2022/12/10 04:56:58;;;;;;;61.55;35.70;;;6.50;90.50;;;;;;5033106;28;20025;-70
2022/12/10 04:59:23;;;;;;;65.88;37.28;;;6.40;90.60;;;;;;5032822;28;20025;-70
2022/12/10 05:01:49;;;;;;;59.08;35.15;;;6.40;90.60;;;;;;5032575;28;20532;-71
2022/12/10 05:04:17;;;;;;;60.72;33.83;;;6.40;90.60;;;;;;5033367;28;20046;-69
2022/12/10 05:06:43;;;;;;;58.42;33.80;;;6.40;90.60;;;;;;5033117;28;20027;-71
2022/12/10 05:09:13;;;;;;;58.10;34.80;;;6.40;90.60;;;;;;5033184;28;20025;-71
2022/12/10 05:11:39;;;;;;;55.75;32.88;;;6.30;90.60;;;;;;5033136;28;20029;-69
2022/12/10 05:14:05;;;;;;;56.13;33.72;;;6.40;90.60;;;;;;5033079;28;20065;-69
2022/12/10 05:16:32;;;;;;;54.67;34.35;;;6.40;90.50;;;;;;5032665;28;20421;-69
2022/12/10 05:18:59;;;;;;;61.05;34.13;;;6.40;90.60;;;;;;5033034;28;20049;-69
2022/12/10 05:24:13;;;;;;;62.97;35.75;;;6.40;90.50;;;;;;5033411;28;20036;-68
2022/12/10 05:26:39;;;;;;;56.50;33.40;;;6.40;90.60;;;;;;5033263;28;20105;-69
2022/12/10 05:29:05;;;;;;;50.90;31.77;;;6.40;90.60;;;;;;5032740;28;20489;-68
2022/12/10 05:31:30;;;;;;;51.05;31.15;;;6.30;90.50;;;;;;5032835;28;20531;-68
2022/12/10 05:33:57;;;;;;;53.97;32.38;;;6.40;90.50;;;;;;5032888;28;20021;-68
2022/12/10 05:36:26;;;;;;;53.10;32.28;;;6.40;90.50;;;;;;5032803;28;20021;-69
2022/12/10 05:38:53;;;;;;;53.53;30.60;;;6.40;90.50;;;;;;5032699;28;20034;-69
2022/12/10 05:41:28;;;;;;;53.83;31.20;;;6.30;90.60;;;;;;5032839;28;20503;-69
2022/12/10 05:43:55;;;;;;;49.25;30.48;;;6.20;90.70;;;;;;5032393;28;20048;-69
2022/12/10 05:46:26;;;;;;;52.60;30.15;;;6.30;91.00;;;;;;5032755;28;20375;-68
2022/12/10 05:48:52;;;;;;;50.65;30.98;;;6.20;90.80;;;;;;5032736;28;20013;-68
2022/12/10 05:51:21;;;;;;;57.08;32.10;;;6.20;90.80;;;;;;5032606;28;20113;-69
2022/12/10 05:53:46;;;;;;;49.58;29.98;;;6.20;90.90;;;;;;5032799;28;20049;-69
2022/12/10 05:56:18;;;;;;;50.42;29.67;;;6.30;90.80;;;;;;5032573;28;20052;-68
2022/12/10 05:58:44;;;;;;;51.53;30.20;;;6.20;90.80;;;;;;5032437;28;20047;-68
2022/12/10 06:01:12;;;;;;;53.25;30.20;;;6.30;90.60;;;;;;5033596;28;20035;-69
2022/12/10 06:03:38;;;;;;;51.70;29.48;;;6.30;90.70;;;;;;5039888;28;20030;-68
2022/12/10 06:06:05;;;;;;;46.38;27.98;;;6.30;90.80;;;;;;5049841;28;20021;-68
2022/12/10 06:08:31;;;;;;;49.80;30.55;;;6.20;90.80;;;;;;5050357;28;20029;-68
2022/12/10 06:11:04;;;;;;;57.72;32.28;;;6.30;90.80;;;;;;5052279;28;20021;-68
2022/12/10 06:13:29;;;;;;;48.92;29.50;;;6.20;90.90;;;;;;5054774;28;20548;-69
2022/12/10 06:15:55;;;;;;;49.30;30.38;;;6.30;91.00;;;;;;5056333;28;20028;-68
2022/12/10 06:18:20;;;;;;;51.38;31.25;;;6.10;91.00;;;;;;5056191;28;20546;-68
2022/12/10 06:20:46;;;;;;;48.25;28.10;;;6.20;91.00;;;;;;5056239;28;20382;-68
2022/12/10 06:23:12;;;;;;;44.63;28.63;;;6.30;90.70;;;;;;5056085;28;20039;-68
2022/12/10 06:25:39;;;;;;;46.80;28.67;;;6.20;90.70;;;;;;5055965;28;20029;-68
2022/12/10 06:28:05;;;;;;;43.67;27.08;;;6.20;90.80;;;;;;5055473;28;20020;-69
2022/12/10 06:30:30;;;;;;;43.28;27.52;;;6.20;90.70;;;;;;5056243;28;20104;-68
2022/12/10 06:32:56;;;;;;;48.50;27.95;;;6.20;90.60;;;;;;5055786;28;20485;-68
2022/12/10 06:35:21;;;;;;;44.22;27.30;;;6.20;90.50;;;;;;5056030;28;20061;-68
2022/12/10 06:37:48;;;;;;;47.13;28.58;;;6.20;90.70;;;;;;5055691;28;20029;-68
2022/12/10 06:40:13;;;;;;;46.90;28.42;;;6.20;90.70;;;;;;5054592;28;20021;-69
2022/12/10 06:42:39;;;;;;;42.92;27.73;;;6.10;90.80;;;;;;5055500;28;20025;-69
2022/12/10 06:45:05;;;;;;;45.72;28.10;;;6.20;90.80;;;;;;5055622;28;20028;-69
2022/12/10 06:47:31;;;;;;;45.72;28.63;;;6.20;90.80;;;;;;5055612;28;20052;-68
2022/12/10 06:49:56;;;;;;;46.03;29.42;;;6.20;90.90;;;;;;5055686;28;20086;-68
2022/12/10 06:52:22;;;;;;;50.97;29.05;;;6.10;90.90;;;;;;5055667;28;20474;-68
2022/12/10 06:54:47;;;;;;;43.95;26.73;;;6.20;90.90;;;;;;5055510;28;20021;-69
2022/12/10 06:57:13;;;;;;;42.85;26.92;;;6.20;90.80;;;;;;5054893;28;20778;-69
2022/12/10 06:59:39;;;;;;;47.00;27.80;;;6.20;90.90;;;;;;5055542;28;20074;-69
2022/12/10 07:02:04;;;;;;;44.30;27.30;;;6.10;90.90;;;;;;5055465;28;20263;-69
2022/12/10 07:04:30;;;;;;;49.83;29.08;;;6.20;90.90;;;;;;5055461;28;20520;-68
2022/12/10 07:06:56;;;;;;;45.80;29.55;;;6.00;91.00;;;;;;5053900;28;20036;-69
2022/12/10 07:09:21;;;;;;;46.30;28.85;;;6.10;91.00;;;;;;5055346;28;20021;-68
2022/12/10 07:11:47;;;;;;;47.17;28.45;;;6.10;91.00;;;;;;5054838;28;20473;-69
2022/12/10 07:14:15;;;;;;;47.47;28.58;;;6.20;91.10;;;;;;5054790;28;20478;-69
2022/12/10 07:16:41;;;;;;;46.38;27.77;;;6.10;91.00;;;;;;5053832;28;20070;-69
2022/12/10 07:19:09;;;;;;;44.60;27.80;;;6.20;91.10;;;;;;5054973;28;20100;-68
2022/12/10 07:21:36;;;;;;;40.60;25.45;;;6.10;91.30;;;;;;5050629;28;20037;-68
2022/12/10 07:24:04;;;;;;;42.05;25.88;;;6.00;91.10;;;;;;5052229;28;20059;-69
2022/12/10 07:26:32;;;;;;;42.00;26.10;;;6.10;91.10;;;;;;5041534;28;20071;-68
2022/12/10 07:28:59;;;;;;;41.65;25.70;;;6.00;91.10;;;;;;5039350;28;20577;-68
2022/12/10 07:31:25;;;;;;;40.08;24.92;;;6.10;91.00;;;;;;5046419;28;20028;-68
2022/12/10 07:33:52;;;;;;;38.22;23.98;;;6.00;91.20;;;;;;5047431;28;20100;-68
2022/12/10 07:36:19;;;;;;;40.58;25.42;;;6.00;91.20;;;;;;5052237;28;20469;-68
2022/12/10 07:38:46;;;;;;;35.97;24.52;;;6.00;91.50;;;;;;5049577;28;20059;-68
2022/12/10 07:41:12;;;;;;;36.53;23.77;;;6.10;91.20;;;;;;5051093;28;20434;-68
2022/12/10 07:43:40;;;;;;;31.80;20.95;;;6.00;91.10;;;;;;5052924;28;20029;-68
2022/12/10 07:46:30;;;;;;;39.47;23.52;;;6.00;91.00;;;;;;5053207;28;20024;-68
2022/12/10 07:48:56;;;;;;;34.38;22.90;;;6.00;91.20;;;;;;5043709;28;20079;-68
2022/12/10 07:51:22;;;;;;;32.80;22.45;;;6.20;91.00;;;;;;5054154;28;20473;-68
2022/12/10 07:53:50;;;;;;;34.85;22.33;;;6.20;91.10;;;;;;5053961;28;20064;-68
2022/12/10 07:56:16;;;;;;;40.08;26.27;;;6.20;91.00;;;;;;5053700;28;20029;-68
2022/12/10 07:58:44;;;;;;;70.03;36.72;;;6.20;91.10;;;;;;5048751;28;20052;-68
2022/12/10 08:01:15;;;;;;;58.88;32.72;;;6.20;91.20;;;;;;5049840;28;20021;-67
2022/12/10 08:03:41;;;;;;;87.43;41.63;;;6.10;91.20;;;;;;5052274;28;20343;-67
2022/12/10 08:06:13;;;;;;;46.35;26.80;;;6.30;91.20;;;;;;5050990;28;20055;-68
2022/12/10 08:08:39;;;;;;;31.70;20.90;;;6.40;91.10;;;;;;5053662;28;20033;-68
2022/12/10 08:11:06;;;;;;;33.55;21.30;;;6.40;90.90;;;;;;5053176;28;20074;-68
2022/12/10 08:13:32;;;;;;;31.85;20.80;;;6.40;90.90;;;;;;5046319;28;20367;-69
2022/12/10 08:16:10;;;;;;;30.95;19.52;;;6.30;91.00;;;;;;5050594;28;20078;-68
2022/12/10 08:18:37;;;;;;;30.33;20.77;;;6.20;91.20;;;;;;5049638;28;20093;-68
2022/12/10 08:21:11;;;;;;;30.25;19.27;;;6.30;91.20;;;;;;5053465;28;20029;-67
2022/12/10 08:23:37;;;;;;;32.38;20.45;;;6.40;91.10;;;;;;5051926;28;20029;-68
2022/12/10 08:26:08;;;;;;;35.88;22.13;;;6.50;91.00;;;;;;5051390;28;20028;-68
2022/12/10 08:28:34;;;;;;;35.35;19.40;;;6.30;91.30;;;;;;5042266;28;20060;-68
2022/12/10 08:31:00;;;;;;;28.92;18.90;;;6.30;91.30;;;;;;5049301;28;20489;-67
2022/12/10 08:33:26;;;;;;;26.67;18.08;;;6.10;91.50;;;;;;5051570;28;20074;-67
2022/12/10 08:35:52;;;;;;;30.50;19.65;;;6.30;91.60;;;;;;5051117;28;20534;-67
2022/12/10 08:38:17;;;;;;;29.55;19.10;;;6.40;91.30;;;;;;5044441;28;20041;-67
2022/12/10 08:40:44;;;;;;;30.63;19.00;;;6.50;91.30;;;;;;5041729;28;20029;-68
2022/12/10 08:43:09;;;;;;;27.42;18.45;;;6.50;91.10;;;;;;5049352;28;20031;-69
2022/12/10 08:45:35;;;;;;;28.08;18.13;;;6.50;91.10;;;;;;5047857;28;20115;-69
2022/12/10 08:48:01;;;;;;;24.42;16.45;;;6.50;91.10;;;;;;5042148;28;20036;-69
2022/12/10 08:50:28;;;;;;;27.75;18.13;;;6.60;91.10;;;;;;5039064;28;20025;-69
2022/12/10 08:52:53;;;;;;;30.80;18.00;;;6.60;91.00;;;;;;5045115;28;20051;-68
2022/12/10 08:55:19;;;;;;;29.25;19.30;;;7.00;90.90;;;;;;5061436;28;20370;-67
2022/12/10 08:57:44;;;;;;;31.52;20.08;;;7.10;90.40;;;;;;5044746;28;20098;-66
2022/12/10 09:00:10;;;;;;;25.90;18.60;;;7.10;90.30;;;;;;5043937;28;20037;-67
2022/12/10 09:02:36;;;;;;;30.38;19.73;;;7.00;90.10;;;;;;5050025;28;20064;-67
2022/12/10 09:05:02;;;;;;;32.08;21.10;;;6.90;90.30;;;;;;5042853;28;20418;-66
2022/12/10 09:07:29;;;;;;;34.13;20.58;;;7.00;90.20;;;;;;5036061;28;20033;-69
2022/12/10 09:09:54;;;;;;;32.90;20.90;;;7.10;90.20;;;;;;5044548;28;20392;-69
2022/12/10 09:12:20;;;;;;;35.30;21.38;;;6.90;90.40;;;;;;5047971;28;20469;-68
2022/12/10 09:14:45;;;;;;;31.20;19.38;;;6.90;90.50;;;;;;5050480;28;20111;-68
2022/12/10 09:17:11;;;;;;;32.78;20.85;;;6.70;90.70;;;;;;5047612;28;20060;-70
2022/12/10 09:19:36;;;;;;;33.45;20.20;;;6.90;90.70;;;;;;5044626;28;20110;-71
2022/12/10 09:22:02;;;;;;;32.15;18.15;;;6.70;90.80;;;;;;5041977;28;20033;-72
2022/12/10 09:24:28;;;;;;;35.15;20.55;;;6.50;91.10;;;;;;5041896;28;20036;-70
2022/12/10 09:26:54;;;;;;;33.10;20.27;;;6.40;91.50;;;;;;5042098;28;20021;-71
2022/12/10 09:29:19;;;;;;;39.25;20.38;;;6.90;90.90;;;;;;5052264;28;20063;-69
2022/12/10 09:31:49;;;;;;;34.58;20.75;;;6.90;91.50;;;;;;5044740;28;20013;-69
2022/12/10 09:34:14;;;;;;;34.20;18.98;;;6.80;91.40;;;;;;5047684;28;20029;-69
2022/12/10 09:36:40;;;;;;;39.42;19.73;;;6.70;91.60;;;;;;5038081;28;20026;-69
2022/12/10 09:39:06;;;;;;;30.90;18.63;;;6.70;91.30;;;;;;5046072;28;20087;-69
2022/12/10 09:42:00;;;;;;;29.38;19.13;;;6.70;91.50;;;;;;5044753;28;20021;-70
2022/12/10 09:44:41;;;;;;;33.35;18.88;;;6.90;91.30;;;;;;5041583;28;20138;-70
2022/12/10 09:47:10;;;;;;;36.22;20.35;;;6.90;91.50;;;;;;5046389;28;20025;-69
2022/12/10 09:50:01;;;;;;;35.45;20.75;;;6.90;91.90;;;;;;5046250;28;20433;-69
2022/12/10 09:52:35;;;;;;;40.60;21.23;;;6.80;92.00;;;;;;5045214;28;20111;-68
2022/12/10 09:55:14;;;;;;;50.80;22.35;;;6.80;92.50;;;;;;5058338;28;20028;-69
2022/12/10 09:57:45;;;;;;;44.42;21.25;;;7.40;92.50;;;;;;5048811;28;20070;-70
2022/12/10 10:00:28;;;;;;;33.22;20.02;;;6.90;92.30;;;;;;5044372;28;20029;-70
2022/12/10 10:03:00;;;;;;;42.88;21.88;;;6.90;92.60;;;;;;5048427;28;20025;-69
2022/12/10 10:05:37;;;;;;;41.15;19.13;;;7.10;92.30;;;;;;5049907;28;20185;-68
2022/12/10 10:08:06;;;;;;;36.05;22.17;;;7.40;92.60;;;;;;5039392;28;20036;-70
2022/12/10 10:10:35;;;;;;;37.25;22.83;;;7.50;92.10;;;;;;5044068;28;20021;-70
2022/12/10 10:13:28;;;;;;;41.15;23.45;;;7.50;91.20;;;;;;5045199;28;20090;-69
2022/12/10 10:15:54;;;;;;;39.15;22.13;;;7.20;91.70;;;;;;5046968;28;20044;-70
2022/12/10 10:18:32;;;;;;;38.95;21.42;;;7.30;91.70;;;;;;5044543;28;20040;-69
2022/12/10 10:20:58;;;;;;;40.97;21.30;;;7.20;91.60;;;;;;5049182;28;20039;-70
2022/12/10 10:23:23;;;;;;;44.97;22.73;;;7.50;91.90;;;;;;5038494;28;20051;-69
2022/12/10 10:25:49;;;;;;;38.00;21.33;;;7.20;92.10;;;;;;5036738;28;20028;-70
2022/12/10 10:28:20;;;;;;;36.20;21.67;;;7.10;92.30;;;;;;5038194;28;20663;-70
2022/12/10 10:30:46;;;;;;;38.22;22.30;;;7.00;92.30;;;;;;5041595;28;20032;-69
2022/12/10 10:33:14;;;;;;;38.28;22.73;;;7.20;92.20;;;;;;5049419;28;20470;-69
2022/12/10 10:35:54;;;;;;;40.00;22.42;;;7.10;92.50;;;;;;5046084;28;20480;-69
2022/12/10 10:38:28;;;;;;;41.35;21.15;;;7.20;92.50;;;;;;5039535;28;20460;-70
2022/12/10 10:41:03;;;;;;;34.30;22.55;;;7.00;92.90;;;;;;5055006;28;20474;-70
2022/12/10 10:43:41;;;;;;;37.85;21.95;;;7.30;92.70;;;;;;5050962;28;20029;-69
2022/12/10 10:46:13;;;;;;;40.13;21.38;;;7.20;92.60;;;;;;5052137;28;20030;-70
2022/12/10 10:48:39;;;;;;;;;;;7.10;92.90;;;;;;5049568;28;20028;-67
2022/12/10 10:51:10;;;;;;;38.97;22.70;;;7.40;92.60;;;;;;5051796;28;20021;-67
2022/12/10 10:53:38;;;;;;;36.00;19.13;;;7.80;92.40;;;;;;5049232;28;20033;-69
2022/12/10 10:56:09;;;;;;;35.70;19.02;;;8.00;92.30;;;;;;5047410;28;20311;-68
2022/12/10 10:58:36;;;;;;;36.83;21.25;;;8.00;92.70;;;;;;5041955;28;20039;-69
2022/12/10 11:01:11;;;;;;;36.88;20.20;;;7.70;92.20;;;;;;5051854;28;20481;-68
2022/12/10 11:03:44;;;;;;;33.65;18.85;;;7.80;92.60;;;;;;5036768;28;20037;-69
2022/12/10 11:06:12;;;;;;;36.58;20.75;;;7.90;92.60;;;;;;5043876;28;20552;-69
2022/12/10 11:08:39;;;;;;;36.42;21.00;;;8.00;92.20;;;;;;5046380;28;20021;-70
2022/12/10 11:11:20;;;;;;;35.85;19.77;;;8.10;92.30;;;;;;5048534;28;20104;-70
2022/12/10 11:13:46;;;;;;;41.72;21.50;;;7.80;92.20;;;;;;5041023;28;20040;-70
2022/12/10 11:16:15;;;;;;;38.33;21.38;;;7.80;92.30;;;;;;5047449;28;20033;-70
2022/12/10 11:19:01;;;;;;;39.90;20.48;;;7.90;92.40;;;;;;5043184;28;20033;-69
2022/12/10 11:21:30;;;;;;;38.67;21.85;;;8.20;92.70;;;;;;5044111;28;20025;-69
2022/12/10 11:23:57;;;;;;;38.75;22.50;;;8.00;92.80;;;;;;5048554;28;20028;-69
2022/12/10 11:26:29;;;;;;;42.40;23.30;;;7.70;92.90;;;;;;5041458;28;20025;-70
2022/12/10 11:29:20;;;;;;;41.03;22.55;;;7.60;93.20;;;;;;5048592;28;20112;-70
2022/12/10 11:32:04;;;;;;;42.15;23.35;;;7.70;93.30;;;;;;5052819;28;20122;-69
2022/12/10 11:35:03;;;;;;;45.50;25.88;;;7.90;94.30;;;;;;5048085;28;20086;-70
2022/12/10 11:37:37;;;;;;;55.38;26.80;;;8.10;92.90;;;;;;5049632;28;20048;-69
2022/12/10 11:40:30;;;;;;;49.00;24.60;;;8.10;93.70;;;;;;5042488;28;20021;-69
2022/12/10 11:43:01;;;;;;;44.17;24.02;;;8.10;93.30;;;;;;5046051;28;20041;-69
2022/12/10 11:45:50;;;;;;;50.87;26.10;;;8.40;93.30;;;;;;5049365;28;20135;-70
2022/12/10 11:49:00;;;;;;;51.47;27.17;;;7.90;92.90;;;;;;5056392;28;20048;-69
2022/12/10 11:51:44;;;;;;;55.63;27.52;;;8.60;94.20;;;;;;5043433;28;20029;-68
2022/12/10 11:54:21;;;;;;;53.63;26.23;;;8.40;93.40;;;;;;5042017;28;20041;-68
2022/12/10 11:56:57;;;;;;;49.47;27.15;;;8.60;93.60;;;;;;5059674;28;20047;-69
2022/12/10 11:59:48;;;;;;;54.35;28.42;;;8.50;92.90;;;;;;5048934;28;20013;-70
2022/12/10 12:02:22;;;;;;;59.70;27.95;;;9.00;93.40;;;;;;5049374;28;20512;-71
2022/12/10 12:05:07;;;;;;;47.95;24.90;;;9.10;93.50;;;;;;5049397;28;20013;-70
2022/12/10 12:07:40;;;;;;;56.05;28.30;;;9.30;94.30;;;;;;5039681;28;20021;-70
2022/12/10 12:10:34;;;;;;;59.58;29.05;;;9.10;93.20;;;;;;5047929;28;20037;-71
2022/12/10 12:13:14;;;;;;;52.58;29.33;;;8.50;92.90;;;;;;5042091;28;20075;-70
2022/12/10 12:15:49;;;;;;;58.50;29.50;;;8.20;92.90;;;;;;5047491;28;20065;-70
2022/12/10 12:18:40;;;;;;;53.05;28.30;;;8.60;91.80;;;;;;5050134;28;20044;-69
2022/12/10 12:21:14;;;;;;;53.63;26.27;;;8.40;92.10;;;;;;5051061;28;20037;-70
2022/12/10 12:24:01;;;;;;;49.13;25.73;;;8.40;92.60;;;;;;5047172;28;20512;-69
2022/12/10 12:26:32;;;;;;;50.15;25.60;;;8.70;92.40;;;;;;5046158;28;20029;-70
2022/12/10 12:29:26;;;;;;;53.30;26.08;;;8.60;92.10;;;;;;5043975;28;20359;-70
2022/12/10 12:32:02;;;;;;;54.38;28.70;;;8.60;91.90;;;;;;5058755;28;20052;-70
2022/12/10 12:34:57;;;;;;;66.05;30.10;;;8.70;91.40;;;;;;5048594;28;20033;-70
2022/12/10 12:37:32;;;;;;;52.33;26.50;;;8.70;91.30;;;;;;5048371;28;20116;-70
2022/12/10 12:40:14;;;;;;;56.25;27.73;;;8.70;91.20;;;;;;5048691;28;20025;-69
2022/12/10 12:42:53;;;;;;;52.88;28.65;;;8.60;91.30;;;;;;5049660;28;20021;-70
2022/12/10 12:45:28;;;;;;;53.72;26.52;;;8.60;91.40;;;;;;5048374;28;20036;-70
2022/12/10 12:48:02;;;;;;;58.13;28.83;;;8.50;91.40;;;;;;5049121;28;20104;-70
2022/12/10 12:50:44;;;;;;;55.90;26.95;;;8.40;91.60;;;;;;5045284;28;20017;-69
2022/12/10 12:53:14;;;;;;;;;;;8.40;91.60;;;;;;5046793;28;20044;-69
2022/12/10 12:55:59;;;;;;;54.08;28.70;;;8.50;91.60;;;;;;5046699;28;20288;-68
2022/12/10 12:58:30;;;;;;;53.75;28.33;;;8.40;91.70;;;;;;5044337;28;20445;-72
2022/12/10 13:01:15;;;;;;;50.25;24.92;;;8.50;91.70;;;;;;5049608;28;20086;-73
2022/12/10 13:03:44;;;;;;;49.72;25.42;;;8.50;91.70;;;;;;5038378;28;20118;-69